HOURLY OBS INDEX

050

Central Western Plains - south

CONDOBOLIN AIRPORT AWS

Site: 050137
Alt: 192.6m
6km E of CONDOBOLIN


  Time     Wind        Temp  DP   Baro     Rain since   Rain past  Vis(m), Cloud(base in m), Weather
  local        km/h                         9am  last   hr   10m    
Wed 16:00   SW 20/ 33  18.8 -7.5  1013.8    0.0   0.0   0.0   0.0   ----- 
Wed 16:30   SW 24/ 37  18.1 -8.9  1013.9    0.0   0.0   0.0   0.0   ----- 
Wed 17:00  SSW 20/ 30  17.6 -7.7  1014.3    0.0   0.0   0.0   0.0   ----- 
Wed 17:30  SSW 19/ 32  16.8 -7.6  1014.8    0.0   0.0   0.0   0.0   ----- 
Wed 18:00  SSW 19/ 24  15.6 -8.6  1015.1    0.0   0.0   0.0   0.0   ----- 
Wed 18:30   SW 15/ 19  13.8 -7.5  1015.5    0.0   0.0   0.0   0.0   ----- 
Wed 19:00   SW 17/ 20  12.9 -6.6  1016.0    0.0   0.0   0.0   0.0   ----- 
Wed 19:30   SW 15/ 17  12.4 -6.5  1016.3    0.0   0.0   0.0   0.0   ----- 
Wed 20:00   SW 11/ 13  11.2 -6.2  1016.7    0.0   0.0   0.0   0.0   ----- 
Wed 20:30  WSW  9/ 11  10.6 -6.2  1016.9    0.0   0.0   0.0   0.0   ----- 
Wed 21:00    W  9/ 11   9.4 -6.0  1017.3    0.0   0.0   0.0   0.0   ----- 

WEST WYALONG AIRPORT AWS

Site: 050017
Alt: 257.0m
97km S of CONDOBOLIN


  Time     Wind        Temp  DP   Baro     Rain since   Rain past  Vis(m), Cloud(base in m), Weather
  local        km/h                         9am  last   hr   10m    
Wed 16:00  WSW 28/ 48  17.1 -4.8  1014.2    0.0   0.0   0.0   0.0   ----- 
Wed 16:30  WSW 28/ 45  16.4 -4.8  1014.2    0.0   0.0   0.0   0.0   ----- 
Wed 17:00   SW 24/ 30  16.0 -4.5  1014.5    0.0   0.0   0.0   0.0   ----- 
Wed 17:30   SW 24/ 33  15.2 -5.2  1015.0    0.0   0.0   0.0   0.0   ----- 
Wed 18:00   SW 19/ 26  14.3 -4.4  1015.4    0.0   0.0   0.0   0.0   ----- 
Wed 18:30   SW 17/ 24  13.5 -4.2  1015.8    0.0   0.0   0.0   0.0   ----- 
Wed 19:00   SW 13/ 17  12.4 -4.2  1016.2    0.0   0.0   0.0   0.0   ----- 
Wed 19:30  WSW 11/ 11  11.6 -4.1  1016.5    0.0   0.0   0.0   0.0   ----- 
Wed 20:00    W  9/ 11  10.1 -3.9  1016.7    0.0   0.0   0.0   0.0   ----- 
Wed 20:30    W 11/ 11   9.5 -3.7  1017.1    0.0   0.0   0.0   0.0   ----- 
Wed 21:00   SW  7/  9   7.2 -4.8  1017.5    0.0   0.0   0.0   0.0   -----